Time;durP1;ratioP1;P1;durP2;ratioP2;P2;SDS_P1;SDS_P2;PMS_P1;PMS_P2;Temp;Humidity;BMP_temperature;BMP_pressure;BME280_temperature;BME280_humidity;BME280_pressure;Samples;Min_cycle;Max_cycle;Signal;HPM_P1;HPM_P2
2023/11/29 00:00:17;;;;;;;12.23;7.50;;;;;;;;;;4935331;29;20024;-80
2023/11/29 00:02:43;;;;;;;8.48;6.32;;;;;;;;;;4935265;29;20459;-80
2023/11/29 00:05:08;;;;;;;12.45;6.95;;;;;;;;;;4934919;29;20027;-80
2023/11/29 00:07:34;;;;;;;11.10;7.18;;;;;;;;;;4935117;29;20392;-80
2023/11/29 00:09:59;;;;;;;13.93;7.85;;;;;;;;;;4935096;29;20020;-80
2023/11/29 00:12:25;;;;;;;11.88;7.60;;;;;;;;;;4919206;29;20362;-80
2023/11/29 00:14:50;;;;;;;10.45;6.68;;;;;;;;;;4920448;29;20021;-80
2023/11/29 00:17:15;;;;;;;12.07;7.77;;;;;;;;;;4934967;29;20035;-80
2023/11/29 00:19:41;;;;;;;10.43;6.97;;;;;;;;;;4920321;29;20359;-80
2023/11/29 00:22:06;;;;;;;11.88;6.93;;;;;;;;;;4918813;29;20265;-80
2023/11/29 00:24:31;;;;;;;10.87;6.63;;;;;;;;;;4920137;29;20392;-80
2023/11/29 00:26:56;;;;;;;10.33;6.30;;;;;;;;;;4934691;29;20270;-80
2023/11/29 00:29:24;;;;;;;10.57;7.30;;;;;;;;;;4934720;29;20299;-80
2023/11/29 00:31:49;;;;;;;12.85;7.70;;;;;;;;;;4918852;29;20247;-80
2023/11/29 00:34:14;;;;;;;10.73;7.10;;;;;;;;;;4920074;29;20024;-80
2023/11/29 00:36:40;;;;;;;10.63;6.60;;;;;;;;;;4918799;29;20251;-80
2023/11/29 00:39:05;;;;;;;9.50;6.87;;;;;;;;;;4934452;29;20258;-80
2023/11/29 00:41:30;;;;;;;12.77;7.67;;;;;;;;;;4934465;29;20276;-80
2023/11/29 00:43:55;;;;;;;14.15;9.07;;;;;;;;;;4934360;29;20690;-80
2023/11/29 00:46:21;;;;;;;13.00;7.97;;;;;;;;;;4919949;29;20024;-80
2023/11/29 00:48:46;;;;;;;11.63;7.77;;;;;;;;;;4934420;29;20369;-80
2023/11/29 00:51:11;;;;;;;12.30;8.15;;;;;;;;;;4919866;29;20047;-80
2023/11/29 00:53:37;;;;;;;12.52;8.57;;;;;;;;;;4934352;29;20483;-80
2023/11/29 00:56:02;;;;;;;13.00;8.35;;;;;;;;;;4918767;29;20043;-80
2023/11/29 00:58:27;;;;;;;18.92;8.10;;;;;;;;;;4918069;29;20031;-80
2023/11/29 01:00:53;;;;;;;11.97;8.13;;;;;;;;;;4918418;29;20039;-80
2023/11/29 01:03:18;;;;;;;13.23;7.72;;;;;;;;;;4919599;29;20024;-80
2023/11/29 01:05:43;;;;;;;11.80;8.23;;;;;;;;;;4918995;29;20036;-80
2023/11/29 01:08:08;;;;;;;17.98;8.27;;;;;;;;;;4917756;29;20277;-80
2023/11/29 01:10:34;;;;;;;12.33;8.23;;;;;;;;;;4924239;29;20401;-80
2023/11/29 01:12:59;;;;;;;14.45;8.55;;;;;;;;;;4916967;29;20290;-80
2023/11/29 01:15:24;;;;;;;14.07;8.38;;;;;;;;;;4918074;29;20111;-80
2023/11/29 01:17:49;;;;;;;11.47;7.13;;;;;;;;;;4919346;29;20071;-80
2023/11/29 01:20:15;;;;;;;13.43;7.28;;;;;;;;;;4934067;29;20314;-80
2023/11/29 01:22:40;;;;;;;11.35;6.68;;;;;;;;;;4919174;29;20024;-80
2023/11/29 01:25:05;;;;;;;11.90;7.72;;;;;;;;;;4933622;29;20039;-80
2023/11/29 01:27:31;;;;;;;13.18;7.22;;;;;;;;;;4933589;29;20103;-80
2023/11/29 01:29:59;;;;;;;12.43;7.25;;;;;;;;;;4918954;29;20052;-80
2023/11/29 01:32:24;;;;;;;11.95;6.88;;;;;;;;;;4922506;29;20084;-80
2023/11/29 01:34:49;;;;;;;12.60;7.50;;;;;;;;;;4898961;29;20024;-80
2023/11/29 01:37:15;;;;;;;14.57;8.85;;;;;;;;;;4883286;29;20064;-80
2023/11/29 01:39:44;;;;;;;13.30;7.00;;;;;;;;;;4900087;29;20036;-80
2023/11/29 01:42:09;;;;;;;12.40;7.93;;;;;;;;;;4898810;29;20071;-80
2023/11/29 01:44:35;;;;;;;11.25;6.75;;;;;;;;;;4914383;29;20123;-80
2023/11/29 01:47:04;;;;;;;14.23;7.80;;;;;;;;;;4905160;29;20016;-80
2023/11/29 01:49:29;;;;;;;14.27;7.63;;;;;;;;;;4933379;29;20020;-80
2023/11/29 01:51:55;;;;;;;13.82;7.93;;;;;;;;;;4917510;29;20024;-80
2023/11/29 01:54:20;;;;;;;15.52;8.15;;;;;;;;;;4918648;29;20457;-81
2023/11/29 01:56:45;;;;;;;12.27;7.95;;;;;;;;;;4933197;29;20024;-80
2023/11/29 01:59:10;;;;;;;11.52;6.68;;;;;;;;;;4918563;29;20046;-80
2023/11/29 02:01:36;;;;;;;11.17;7.37;;;;;;;;;;4918547;29;20039;-80
2023/11/29 02:04:01;;;;;;;13.05;8.00;;;;;;;;;;4932472;29;20259;-80
2023/11/29 02:06:26;;;;;;;12.87;7.53;;;;;;;;;;4933051;29;20107;-80
2023/11/29 02:08:51;;;;;;;12.57;7.82;;;;;;;;;;4917983;29;20278;-80
2023/11/29 02:11:18;;;;;;;10.55;6.50;;;;;;;;;;4918404;29;20012;-80
2023/11/29 02:13:43;;;;;;;11.52;7.45;;;;;;;;;;4932854;29;20052;-80
2023/11/29 02:16:08;;;;;;;12.75;7.43;;;;;;;;;;4918267;29;20031;-80
2023/11/29 02:18:33;;;;;;;17.48;8.23;;;;;;;;;;4918202;29;20095;-80
2023/11/29 02:20:59;;;;;;;10.70;6.80;;;;;;;;;;4917356;29;20031;-80
2023/11/29 02:23:29;;;;;;;13.40;7.72;;;;;;;;;;4930906;29;20350;-80
2023/11/29 02:25:55;;;;;;;12.80;7.18;;;;;;;;;;4891356;29;20172;-80
2023/11/29 02:28:20;;;;;;;14.40;7.87;;;;;;;;;;4931806;29;20123;-80
2023/11/29 02:30:45;;;;;;;15.77;7.77;;;;;;;;;;4917814;29;20338;-80
2023/11/29 02:33:10;;;;;;;13.13;7.83;;;;;;;;;;4917942;29;20239;-80
2023/11/29 02:35:36;;;;;;;13.90;7.60;;;;;;;;;;4917812;29;20247;-80
2023/11/29 02:38:01;;;;;;;20.63;9.23;;;;;;;;;;4917809;29;20173;-80
2023/11/29 02:40:26;;;;;;;15.27;7.55;;;;;;;;;;4917818;29;20024;-81
2023/11/29 02:42:51;;;;;;;16.52;8.23;;;;;;;;;;4932354;29;20051;-80
2023/11/29 02:45:16;;;;;;;13.53;7.67;;;;;;;;;;4932311;29;20182;-80
2023/11/29 02:47:42;;;;;;;11.23;7.53;;;;;;;;;;4917633;29;20652;-80
2023/11/29 02:50:07;;;;;;;17.45;8.98;;;;;;;;;;4917717;29;20072;-80
2023/11/29 02:52:32;;;;;;;12.77;7.88;;;;;;;;;;4932099;29;20369;-80
2023/11/29 02:54:58;;;;;;;13.98;7.93;;;;;;;;;;4932076;29;20020;-80
2023/11/29 02:57:23;;;;;;;14.57;7.53;;;;;;;;;;4917520;29;20030;-80
2023/11/29 02:59:48;;;;;;;13.87;8.27;;;;;;;;;;4932057;29;20255;-80
2023/11/29 03:02:14;;;;;;;14.73;8.57;;;;;;;;;;4916246;29;20083;-80
2023/11/29 03:04:39;;;;;;;14.30;8.15;;;;;;;;;;4931917;29;20291;-80
2023/11/29 03:07:05;;;;;;;13.35;8.57;;;;;;;;;;4916146;29;20017;-80
2023/11/29 03:09:30;;;;;;;15.02;7.82;;;;;;;;;;4916148;29;20024;-80
2023/11/29 03:11:55;;;;;;;13.93;8.35;;;;;;;;;;4917119;29;20025;-80
2023/11/29 03:14:21;;;;;;;13.90;8.17;;;;;;;;;;4917375;29;20032;-81
2023/11/29 03:16:46;;;;;;;13.80;8.33;;;;;;;;;;4931889;29;20263;-80
2023/11/29 03:19:11;;;;;;;13.63;7.90;;;;;;;;;;4931374;29;20262;-80
2023/11/29 03:21:36;;;;;;;15.83;9.10;;;;;;;;;;4917084;29;20263;-80
2023/11/29 03:24:02;;;;;;;13.80;8.50;;;;;;;;;;4931573;29;20262;-80
2023/11/29 03:26:27;;;;;;;14.15;7.72;;;;;;;;;;4915730;29;20282;-80
2023/11/29 03:28:52;;;;;;;14.47;8.23;;;;;;;;;;4931600;29;20032;-80
2023/11/29 03:31:18;;;;;;;15.82;8.32;;;;;;;;;;4931955;29;20282;-80
2023/11/29 03:33:43;;;;;;;16.37;9.17;;;;;;;;;;4931713;29;20087;-80
2023/11/29 03:36:09;;;;;;;16.77;8.07;;;;;;;;;;4916014;29;20683;-80
2023/11/29 03:38:34;;;;;;;16.02;9.25;;;;;;;;;;4905866;29;20279;-80
2023/11/29 03:40:59;;;;;;;13.57;7.53;;;;;;;;;;4914783;29;20119;-80
2023/11/29 03:43:24;;;;;;;13.90;8.47;;;;;;;;;;4930060;29;21669;-80
2023/11/29 03:45:50;;;;;;;12.32;8.20;;;;;;;;;;4913889;29;20358;-80
2023/11/29 03:48:15;;;;;;;13.30;7.70;;;;;;;;;;4916917;29;20133;-80
2023/11/29 03:50:40;;;;;;;14.80;8.20;;;;;;;;;;4916830;29;20259;-80
2023/11/29 03:53:05;;;;;;;13.37;7.77;;;;;;;;;;4931499;29;20262;-80
2023/11/29 03:55:31;;;;;;;16.80;9.47;;;;;;;;;;4931469;29;20266;-80
2023/11/29 03:57:56;;;;;;;13.63;8.13;;;;;;;;;;4931376;29;20251;-80
2023/11/29 04:00:22;;;;;;;13.70;8.13;;;;;;;;;;4931456;29;20163;-81
2023/11/29 04:02:47;;;;;;;13.45;7.78;;;;;;;;;;4931213;29;20259;-80
2023/11/29 04:05:13;;;;;;;15.50;8.00;;;;;;;;;;4915460;29;20491;-80
2023/11/29 04:07:39;;;;;;;19.20;7.60;;;;;;;;;;4930672;29;20240;-80
2023/11/29 04:10:04;;;;;;;14.40;8.40;;;;;;;;;;4929668;29;20051;-80
2023/11/29 04:12:30;;;;;;;13.90;8.38;;;;;;;;;;4913847;29;20282;-80
2023/11/29 04:14:55;;;;;;;12.53;7.67;;;;;;;;;;4915275;29;20028;-80
2023/11/29 04:17:20;;;;;;;17.63;8.27;;;;;;;;;;4914423;29;21695;-80
2023/11/29 04:19:45;;;;;;;12.10;7.53;;;;;;;;;;4916672;29;20056;-80
2023/11/29 04:22:11;;;;;;;14.10;8.17;;;;;;;;;;4914690;29;20623;-80
2023/11/29 04:24:36;;;;;;;13.60;7.80;;;;;;;;;;4915343;29;20779;-80
2023/11/29 04:27:01;;;;;;;13.48;8.50;;;;;;;;;;4929516;29;20059;-80
2023/11/29 04:29:26;;;;;;;12.25;7.10;;;;;;;;;;4915116;29;20086;-80
2023/11/29 04:31:51;;;;;;;13.10;7.95;;;;;;;;;;4932549;29;20496;-80
2023/11/29 04:34:18;;;;;;;10.93;7.47;;;;;;;;;;4929168;29;20079;-80
2023/11/29 04:36:43;;;;;;;13.15;8.10;;;;;;;;;;4916537;29;20109;-80
2023/11/29 04:39:10;;;;;;;14.38;8.50;;;;;;;;;;4918986;29;20032;-80
2023/11/29 04:41:35;;;;;;;13.00;8.18;;;;;;;;;;4932728;29;20041;-80
2023/11/29 04:44:00;;;;;;;14.40;8.27;;;;;;;;;;4933479;29;20498;-80
2023/11/29 04:46:25;;;;;;;16.98;8.25;;;;;;;;;;4917319;29;20794;-80
2023/11/29 04:48:50;;;;;;;16.55;8.75;;;;;;;;;;4934333;29;20072;-80
2023/11/29 04:51:16;;;;;;;14.97;8.40;;;;;;;;;;4934338;29;20020;-80
2023/11/29 04:53:41;;;;;;;12.70;7.72;;;;;;;;;;4919647;29;20254;-80
2023/11/29 04:56:07;;;;;;;14.48;8.48;;;;;;;;;;4918517;29;20028;-80
2023/11/29 04:58:39;;;;;;;12.60;7.93;;;;;;;;;;4918485;29;20119;-80
2023/11/29 05:01:04;;;;;;;;;;;;;;;;;;4920076;29;20024;-80
2023/11/29 05:03:30;;;;;;;13.20;7.77;;;;;;;;;;4919516;29;19913;-80
2023/11/29 05:05:55;;;;;;;11.63;7.03;;;;;;;;;;4919455;29;20501;-80
2023/11/29 05:08:20;;;;;;;15.40;8.67;;;;;;;;;;4917441;29;20270;-80
2023/11/29 05:10:45;;;;;;;12.20;7.45;;;;;;;;;;4913462;29;20025;-81
2023/11/29 05:13:11;;;;;;;12.60;7.67;;;;;;;;;;4906573;29;20024;-81
2023/11/29 05:15:36;;;;;;;13.27;7.88;;;;;;;;;;4917721;29;20277;-81
2023/11/29 05:18:02;;;;;;;12.00;7.32;;;;;;;;;;4918239;29;20385;-81
2023/11/29 05:20:27;;;;;;;11.15;6.75;;;;;;;;;;4918078;29;20388;-84
2023/11/29 05:22:52;;;;;;;10.88;7.13;;;;;;;;;;4916732;29;20484;-81
2023/11/29 05:25:19;;;;;;;12.20;7.47;;;;;;;;;;4917616;29;20072;-81
2023/11/29 05:27:46;;;;;;;10.60;7.10;;;;;;;;;;4932462;29;20294;-81
2023/11/29 05:30:11;;;;;;;11.48;7.00;;;;;;;;;;4932533;29;20107;-81
2023/11/29 05:32:36;;;;;;;10.55;6.47;;;;;;;;;;4916318;29;20101;-81
2023/11/29 05:35:02;;;;;;;11.80;7.13;;;;;;;;;;4908576;29;20024;-83
2023/11/29 05:37:27;;;;;;;9.60;6.43;;;;;;;;;;4921285;29;20185;-82
2023/11/29 05:39:52;;;;;;;8.43;5.97;;;;;;;;;;4932919;29;20270;-82
2023/11/29 05:42:17;;;;;;;10.90;7.00;;;;;;;;;;4932919;29;20258;-82
2023/11/29 05:44:43;;;;;;;10.50;6.43;;;;;;;;;;4916136;29;20683;-82
2023/11/29 05:47:08;;;;;;;11.43;6.70;;;;;;;;;;4918806;29;20660;-82
2023/11/29 05:49:33;;;;;;;9.85;6.82;;;;;;;;;;4918714;29;20103;-82
2023/11/29 05:51:58;;;;;;;10.53;6.37;;;;;;;;;;4918749;29;20052;-82
2023/11/29 05:54:23;;;;;;;10.77;5.77;;;;;;;;;;4918683;29;20258;-82
2023/11/29 05:56:49;;;;;;;8.50;5.53;;;;;;;;;;4918690;29;20255;-82
2023/11/29 05:59:14;;;;;;;10.37;5.87;;;;;;;;;;4918592;29;20258;-82
2023/11/29 06:01:39;;;;;;;10.10;6.43;;;;;;;;;;4918523;29;20247;-82
2023/11/29 06:04:05;;;;;;;10.00;6.72;;;;;;;;;;4918455;29;20080;-82
2023/11/29 06:06:31;;;;;;;10.05;5.70;;;;;;;;;;4933093;29;20116;-82
2023/11/29 06:08:57;;;;;;;9.60;6.28;;;;;;;;;;4918416;29;20381;-82
2023/11/29 06:11:22;;;;;;;10.40;6.10;;;;;;;;;;4918434;29;20023;-82
2023/11/29 06:13:50;;;;;;;9.50;6.47;;;;;;;;;;4932918;29;20050;-82
2023/11/29 06:16:15;;;;;;;10.20;6.60;;;;;;;;;;4917272;29;20091;-82
2023/11/29 06:18:40;;;;;;;9.40;6.20;;;;;;;;;;4916924;29;20107;-82
2023/11/29 06:21:05;;;;;;;9.93;6.50;;;;;;;;;;4916962;29;20469;-82
2023/11/29 06:23:31;;;;;;;10.43;6.63;;;;;;;;;;4918104;29;20031;-82
2023/11/29 06:25:56;;;;;;;9.82;6.38;;;;;;;;;;4918042;29;20028;-82
2023/11/29 06:28:21;;;;;;;9.63;6.63;;;;;;;;;;4932505;29;20048;-82
2023/11/29 06:30:47;;;;;;;9.30;6.20;;;;;;;;;;4916785;29;20251;-82
2023/11/29 06:33:12;;;;;;;11.20;7.32;;;;;;;;;;4917991;29;20032;-82
2023/11/29 06:35:37;;;;;;;10.88;7.10;;;;;;;;;;4918075;29;20050;-82
2023/11/29 06:38:02;;;;;;;8.30;5.33;;;;;;;;;;4932525;29;20063;-82
2023/11/29 06:40:28;;;;;;;10.82;6.80;;;;;;;;;;4916597;29;20691;-82
2023/11/29 06:42:53;;;;;;;9.35;6.32;;;;;;;;;;4916521;29;20024;-82
2023/11/29 06:45:19;;;;;;;9.95;6.25;;;;;;;;;;4916502;29;20055;-82
2023/11/29 06:47:47;;;;;;;10.05;6.60;;;;;;;;;;4916513;29;20020;-82
2023/11/29 06:50:13;;;;;;;10.32;6.80;;;;;;;;;;4916496;29;20024;-82
2023/11/29 06:52:39;;;;;;;9.90;6.65;;;;;;;;;;4916408;29;20120;-82
2023/11/29 06:55:04;;;;;;;9.98;6.35;;;;;;;;;;4915556;29;20480;-82
2023/11/29 06:57:30;;;;;;;10.10;5.70;;;;;;;;;;4917490;29;20020;-82
2023/11/29 06:59:55;;;;;;;10.40;6.32;;;;;;;;;;4916323;29;20028;-82
2023/11/29 07:02:21;;;;;;;9.77;5.88;;;;;;;;;;4917616;29;20052;-82
2023/11/29 07:04:48;;;;;;;10.27;6.40;;;;;;;;;;4916179;29;20389;-82
2023/11/29 07:07:14;;;;;;;9.80;6.32;;;;;;;;;;4917402;29;20056;-82
2023/11/29 07:09:39;;;;;;;10.75;6.35;;;;;;;;;;4917460;29;20424;-82
2023/11/29 07:12:05;;;;;;;9.00;6.07;;;;;;;;;;4931934;29;20024;-82
2023/11/29 07:14:30;;;;;;;9.63;6.45;;;;;;;;;;4916062;29;20269;-82
2023/11/29 07:16:55;;;;;;;8.32;5.78;;;;;;;;;;4916036;29;20085;-82
2023/11/29 07:19:21;;;;;;;11.07;7.07;;;;;;;;;;4916029;29;20369;-82
2023/11/29 07:21:46;;;;;;;10.57;6.78;;;;;;;;;;4915905;29;20314;-82
2023/11/29 07:24:12;;;;;;;12.13;6.72;;;;;;;;;;4931718;29;20028;-82
2023/11/29 07:26:37;;;;;;;11.65;7.38;;;;;;;;;;4917005;29;20084;-82
2023/11/29 07:29:03;;;;;;;11.18;6.90;;;;;;;;;;4931717;29;20472;-82
2023/11/29 07:31:29;;;;;;;12.75;7.47;;;;;;;;;;4915900;29;20025;-82
2023/11/29 07:33:56;;;;;;;12.80;7.30;;;;;;;;;;4915858;29;20429;-82
2023/11/29 07:36:22;;;;;;;10.05;7.22;;;;;;;;;;4917171;29;20028;-82
2023/11/29 07:38:47;;;;;;;11.85;7.85;;;;;;;;;;4915895;29;20020;-82
2023/11/29 07:41:12;;;;;;;11.07;7.30;;;;;;;;;;4917022;29;20560;-82
2023/11/29 07:43:38;;;;;;;12.40;7.85;;;;;;;;;;4917008;29;20394;-82
2023/11/29 07:46:03;;;;;;;12.07;8.10;;;;;;;;;;4916958;29;20066;-82
2023/11/29 07:48:29;;;;;;;12.15;8.10;;;;;;;;;;4931542;29;20285;-82
2023/11/29 07:50:56;;;;;;;13.10;7.63;;;;;;;;;;4931541;29;20025;-82
2023/11/29 07:53:21;;;;;;;13.27;7.57;;;;;;;;;;4915994;29;20584;-82
2023/11/29 07:55:46;;;;;;;14.53;8.00;;;;;;;;;;4916906;29;20059;-82
2023/11/29 07:58:13;;;;;;;11.80;7.80;;;;;;;;;;4915598;29;20353;-82
2023/11/29 08:00:38;;;;;;;12.73;8.23;;;;;;;;;;4915631;29;20346;-82
2023/11/29 08:03:04;;;;;;;12.85;8.05;;;;;;;;;;4916874;29;20168;-82
2023/11/29 08:05:29;;;;;;;11.45;7.57;;;;;;;;;;4915812;29;20024;-82
2023/11/29 08:07:55;;;;;;;13.50;8.93;;;;;;;;;;4919337;29;20020;-82
2023/11/29 08:10:20;;;;;;;13.90;8.50;;;;;;;;;;4920542;29;20026;-82
2023/11/29 08:12:46;;;;;;;11.48;7.25;;;;;;;;;;4920435;29;20032;-82
2023/11/29 08:15:12;;;;;;;16.77;8.77;;;;;;;;;;4919241;29;20028;-82
2023/11/29 08:17:37;;;;;;;11.77;7.40;;;;;;;;;;4919171;29;20035;-82
2023/11/29 08:20:05;;;;;;;13.68;7.90;;;;;;;;;;4920441;29;20079;-82
2023/11/29 08:22:30;;;;;;;15.38;8.35;;;;;;;;;;4920280;29;20059;-82
2023/11/29 08:24:55;;;;;;;15.00;8.45;;;;;;;;;;4920210;29;20060;-82
2023/11/29 08:27:21;;;;;;;15.40;9.03;;;;;;;;;;4918908;29;20052;-82
2023/11/29 08:29:47;;;;;;;13.15;7.68;;;;;;;;;;4934827;29;20255;-82
2023/11/29 08:32:12;;;;;;;12.07;8.13;;;;;;;;;;4920189;29;20080;-82
2023/11/29 08:34:37;;;;;;;11.23;7.40;;;;;;;;;;4934757;29;20442;-82
2023/11/29 08:37:03;;;;;;;11.40;7.50;;;;;;;;;;4918817;29;20064;-82
2023/11/29 08:39:28;;;;;;;13.02;7.63;;;;;;;;;;4918720;29;20301;-82
2023/11/29 08:41:53;;;;;;;14.60;8.60;;;;;;;;;;4918812;29;20607;-82
2023/11/29 08:44:19;;;;;;;12.65;8.07;;;;;;;;;;4934471;29;20305;-82
2023/11/29 08:46:44;;;;;;;12.48;7.68;;;;;;;;;;4934533;29;20065;-82
2023/11/29 08:49:09;;;;;;;12.70;7.55;;;;;;;;;;4919841;29;20020;-82
2023/11/29 08:51:34;;;;;;;12.47;7.87;;;;;;;;;;4918560;29;20027;-82
2023/11/29 08:53:59;;;;;;;10.77;6.90;;;;;;;;;;4919863;29;20017;-82
2023/11/29 08:56:25;;;;;;;12.97;7.13;;;;;;;;;;4919804;29;20314;-82
2023/11/29 08:58:50;;;;;;;13.93;7.17;;;;;;;;;;4918404;29;20299;-82
2023/11/29 09:01:18;;;;;;;12.88;8.18;;;;;;;;;;4919703;29;20020;-82
2023/11/29 09:03:44;;;;;;;12.85;8.27;;;;;;;;;;4919671;29;20032;-82
2023/11/29 09:06:09;;;;;;;12.75;8.40;;;;;;;;;;4934182;29;20028;-82
2023/11/29 09:08:35;;;;;;;12.70;7.83;;;;;;;;;;4919453;29;20020;-82
2023/11/29 09:11:00;;;;;;;11.50;7.63;;;;;;;;;;4934076;29;20255;-82
2023/11/29 09:13:26;;;;;;;14.75;8.77;;;;;;;;;;4919458;29;20259;-82
2023/11/29 09:15:51;;;;;;;11.80;7.90;;;;;;;;;;4933969;29;20433;-82
2023/11/29 09:18:16;;;;;;;14.15;7.82;;;;;;;;;;4918363;29;20589;-82
2023/11/29 09:20:43;;;;;;;12.40;8.27;;;;;;;;;;4919363;29;20032;-82
2023/11/29 09:23:08;;;;;;;12.27;7.75;;;;;;;;;;4917958;29;20339;-82
2023/11/29 09:25:34;;;;;;;12.67;8.07;;;;;;;;;;4933761;29;20483;-82
2023/11/29 09:28:00;;;;;;;15.10;8.17;;;;;;;;;;4933669;29;20684;-82
2023/11/29 09:30:25;;;;;;;12.18;7.45;;;;;;;;;;4917932;29;20747;-82
2023/11/29 09:32:50;;;;;;;12.93;8.40;;;;;;;;;;4919073;29;20088;-82
2023/11/29 09:35:16;;;;;;;12.80;8.20;;;;;;;;;;4917776;29;20255;-82
2023/11/29 09:37:41;;;;;;;15.07;9.02;;;;;;;;;;4919031;29;20254;-82
2023/11/29 09:40:08;;;;;;;14.07;8.35;;;;;;;;;;4918980;29;20114;-82
2023/11/29 09:42:34;;;;;;;12.45;8.40;;;;;;;;;;4933447;29;20024;-82
2023/11/29 09:45:00;;;;;;;13.00;8.43;;;;;;;;;;4918879;29;20111;-82
2023/11/29 09:47:26;;;;;;;14.98;8.85;;;;;;;;;;4918872;29;20417;-82
2023/11/29 09:49:52;;;;;;;11.73;7.53;;;;;;;;;;4918805;29;20027;-82
2023/11/29 09:52:17;;;;;;;13.77;7.53;;;;;;;;;;4918791;29;20056;-82
2023/11/29 09:54:43;;;;;;;11.52;7.90;;;;;;;;;;4917458;29;20058;-82
2023/11/29 09:57:08;;;;;;;13.40;8.23;;;;;;;;;;4918633;29;20031;-82
2023/11/29 09:59:33;;;;;;;13.60;8.07;;;;;;;;;;4918563;29;20555;-82
2023/11/29 10:02:01;;;;;;;12.80;8.50;;;;;;;;;;4917272;29;20247;-82
2023/11/29 10:04:27;;;;;;;13.75;7.90;;;;;;;;;;4917176;29;20254;-82
2023/11/29 10:06:52;;;;;;;11.70;8.20;;;;;;;;;;4918550;29;20088;-82
2023/11/29 10:09:17;;;;;;;12.75;8.73;;;;;;;;;;4933071;29;20047;-82
2023/11/29 10:11:43;;;;;;;13.50;7.97;;;;;;;;;;4933066;29;20388;-82
2023/11/29 10:14:08;;;;;;;12.75;7.70;;;;;;;;;;4918395;29;20667;-82
2023/11/29 10:16:34;;;;;;;17.45;7.97;;;;;;;;;;4917058;29;20481;-82
2023/11/29 10:19:03;;;;;;;10.90;7.68;;;;;;;;;;4932831;29;20392;-82
2023/11/29 10:21:28;;;;;;;15.57;8.35;;;;;;;;;;4918289;29;20099;-82
2023/11/29 10:23:53;;;;;;;12.13;7.97;;;;;;;;;;4918099;29;20452;-82
2023/11/29 10:26:19;;;;;;;15.10;8.10;;;;;;;;;;4932492;29;20028;-82
2023/11/29 10:28:44;;;;;;;13.05;7.93;;;;;;;;;;4917918;29;20055;-82
2023/11/29 10:31:10;;;;;;;13.47;8.40;;;;;;;;;;4918095;29;20068;-82
2023/11/29 10:33:37;;;;;;;13.23;8.18;;;;;;;;;;4916789;29;20263;-82
2023/11/29 10:36:03;;;;;;;14.70;8.02;;;;;;;;;;4916691;29;20024;-82
2023/11/29 10:38:28;;;;;;;10.45;7.05;;;;;;;;;;4917815;29;20111;-82
2023/11/29 10:40:55;;;;;;;13.55;8.23;;;;;;;;;;4932498;29;20060;-82
2023/11/29 10:43:24;;;;;;;14.68;7.93;;;;;;;;;;4916640;29;20031;-82
2023/11/29 10:45:52;;;;;;;11.70;7.75;;;;;;;;;;4917779;29;20544;-82
2023/11/29 10:48:20;;;;;;;14.57;7.65;;;;;;;;;;4917753;29;20094;-82
2023/11/29 10:50:46;;;;;;;15.15;9.45;;;;;;;;;;4932298;29;20040;-82
2023/11/29 10:53:12;;;;;;;15.60;8.57;;;;;;;;;;4916466;29;20499;-82
2023/11/29 10:55:39;;;;;;;13.38;7.95;;;;;;;;;;4917619;29;20027;-82
2023/11/29 10:58:24;;;;;;;14.25;8.77;;;;;;;;;;4917634;29;20024;-82
2023/11/29 11:00:50;;;;;;;17.52;9.82;;;;;;;;;;4916337;29;20408;-82
2023/11/29 11:03:34;;;;;;;14.32;9.07;;;;;;;;;;4916283;29;20060;-82
2023/11/29 11:06:18;;;;;;;14.80;9.23;;;;;;;;;;4917400;29;20496;-82
2023/11/29 11:08:43;;;;;;;13.48;8.82;;;;;;;;;;4917447;29;20110;-82
2023/11/29 11:11:08;;;;;;;13.80;8.50;;;;;;;;;;4917342;29;20055;-82
2023/11/29 11:13:36;;;;;;;15.15;9.52;;;;;;;;;;4931893;29;20261;-82
2023/11/29 11:16:01;;;;;;;18.95;9.57;;;;;;;;;;4916053;29;20035;-82
2023/11/29 11:18:29;;;;;;;14.87;8.47;;;;;;;;;;4916029;29;20061;-82
2023/11/29 11:20:59;;;;;;;13.00;8.18;;;;;;;;;;4917324;29;20668;-82
2023/11/29 11:23:25;;;;;;;17.08;9.82;;;;;;;;;;4931807;29;20028;-82
2023/11/29 11:25:55;;;;;;;13.85;8.70;;;;;;;;;;4915936;29;20046;-82
2023/11/29 11:28:34;;;;;;;14.45;9.80;;;;;;;;;;4916972;29;20112;-82
2023/11/29 11:31:09;;;;;;;15.20;9.48;;;;;;;;;;4917088;29;20024;-82
2023/11/29 11:33:53;;;;;;;12.45;7.68;;;;;;;;;;4915938;29;20039;-82
2023/11/29 11:36:22;;;;;;;14.68;8.38;;;;;;;;;;4931606;29;20025;-82
2023/11/29 11:38:49;;;;;;;13.88;7.25;;;;;;;;;;4917080;29;20052;-82
2023/11/29 11:41:14;;;;;;;13.35;7.32;;;;;;;;;;4916561;29;20437;-82
2023/11/29 11:43:40;;;;;;;12.60;8.43;;;;;;;;;;4915847;29;20080;-82
2023/11/29 11:46:05;;;;;;;13.10;8.88;;;;;;;;;;4915681;29;20684;-82
2023/11/29 11:48:31;;;;;;;16.95;9.57;;;;;;;;;;4916961;29;20111;-82
2023/11/29 11:50:56;;;;;;;13.52;9.18;;;;;;;;;;4917053;29;20031;-82
2023/11/29 11:53:22;;;;;;;16.35;9.05;;;;;;;;;;4915686;29;20016;-82
2023/11/29 11:55:49;;;;;;;14.70;8.90;;;;;;;;;;4915724;29;20024;-82
2023/11/29 11:58:15;;;;;;;14.13;8.13;;;;;;;;;;4915628;29;20028;-82
2023/11/29 12:00:41;;;;;;;16.27;9.07;;;;;;;;;;4915714;29;20024;-82
2023/11/29 12:03:06;;;;;;;13.02;8.18;;;;;;;;;;4916917;29;20075;-82
2023/11/29 12:05:32;;;;;;;14.03;7.20;;;;;;;;;;4916772;29;20103;-82
2023/11/29 12:07:57;;;;;;;11.80;7.18;;;;;;;;;;4916793;29;20258;-82
2023/11/29 12:10:23;;;;;;;12.15;7.20;;;;;;;;;;4916963;29;20016;-82
2023/11/29 12:12:48;;;;;;;10.18;6.30;;;;;;;;;;4915542;29;20021;-82
2023/11/29 12:15:14;;;;;;;10.33;6.77;;;;;;;;;;4915545;29;20043;-82
2023/11/29 12:17:40;;;;;;;10.23;6.13;;;;;;;;;;4916745;29;20326;-82
2023/11/29 12:20:06;;;;;;;9.48;5.53;;;;;;;;;;4915496;29;20024;-82
2023/11/29 12:22:32;;;;;;;7.82;4.93;;;;;;;;;;4916608;29;20028;-82
2023/11/29 12:24:58;;;;;;;7.38;5.03;;;;;;;;;;4916910;29;20028;-82
2023/11/29 12:27:24;;;;;;;5.57;4.03;;;;;;;;;;4916510;29;20070;-82
2023/11/29 12:29:51;;;;;;;10.90;4.50;;;;;;;;;;4916670;29;20028;-82
2023/11/29 12:32:17;;;;;;;6.93;4.43;;;;;;;;;;4931185;29;20028;-82
2023/11/29 12:34:43;;;;;;;7.65;4.72;;;;;;;;;;4931184;29;20391;-82
2023/11/29 12:37:16;;;;;;;7.45;5.13;;;;;;;;;;4916592;29;20023;-82
2023/11/29 12:39:41;;;;;;;7.80;4.50;;;;;;;;;;4916655;29;20028;-82
2023/11/29 12:42:09;;;;;;;6.75;4.32;;;;;;;;;;4915264;29;20024;-82
2023/11/29 12:44:34;;;;;;;7.10;4.65;;;;;;;;;;4916464;29;20027;-82
2023/11/29 12:47:00;;;;;;;7.07;4.60;;;;;;;;;;4915225;29;20016;-82
2023/11/29 12:49:25;;;;;;;6.47;3.85;;;;;;;;;;4916488;29;20044;-82
2023/11/29 12:51:51;;;;;;;6.55;4.13;;;;;;;;;;4916458;29;20381;-82
2023/11/29 12:54:16;;;;;;;6.25;4.35;;;;;;;;;;4919166;29;20020;-82
2023/11/29 12:56:41;;;;;;;6.67;3.93;;;;;;;;;;4919763;29;20028;-82
2023/11/29 12:59:07;;;;;;;5.20;3.58;;;;;;;;;;4918500;29;20319;-82
2023/11/29 13:01:32;;;;;;;5.97;3.75;;;;;;;;;;4918457;29;20024;-82
2023/11/29 13:03:58;;;;;;;6.82;4.70;;;;;;;;;;4919691;29;20389;-82
2023/11/29 13:06:24;;;;;;;7.30;4.63;;;;;;;;;;4919571;29;20111;-82
2023/11/29 13:08:49;;;;;;;8.32;5.18;;;;;;;;;;4919583;29;20016;-82
2023/11/29 13:11:15;;;;;;;8.20;5.05;;;;;;;;;;4934134;29;20056;-82
2023/11/29 13:13:40;;;;;;;7.43;5.13;;;;;;;;;;4934056;29;20025;-82
2023/11/29 13:16:05;;;;;;;8.63;5.60;;;;;;;;;;4918143;29;20118;-82
2023/11/29 13:18:30;;;;;;;7.35;5.00;;;;;;;;;;4919347;29;20031;-82
2023/11/29 13:20:56;;;;;;;9.13;5.57;;;;;;;;;;4919309;29;20103;-82
2023/11/29 13:23:21;;;;;;;7.50;5.13;;;;;;;;;;4917979;29;20346;-82
2023/11/29 13:25:47;;;;;;;8.83;5.97;;;;;;;;;;4919270;29;20373;-82
2023/11/29 13:28:12;;;;;;;9.65;5.97;;;;;;;;;;4919094;29;20283;-82
2023/11/29 13:30:38;;;;;;;8.67;6.27;;;;;;;;;;4917894;29;20035;-82
2023/11/29 13:33:03;;;;;;;11.48;6.03;;;;;;;;;;4918030;29;20262;-82
2023/11/29 13:35:28;;;;;;;9.23;6.28;;;;;;;;;;4933589;29;20493;-82
2023/11/29 13:37:53;;;;;;;10.17;6.60;;;;;;;;;;4919049;29;20119;-82
2023/11/29 13:40:19;;;;;;;9.65;6.15;;;;;;;;;;4919038;29;20386;-82
2023/11/29 13:42:44;;;;;;;9.77;6.80;;;;;;;;;;4917744;29;20476;-82
2023/11/29 13:45:09;;;;;;;12.88;6.60;;;;;;;;;;4917580;29;20277;-82
2023/11/29 13:47:36;;;;;;;14.77;8.00;;;;;;;;;;4917673;29;20064;-82
2023/11/29 13:50:02;;;;;;;12.70;7.35;;;;;;;;;;4917592;29;20024;-82
2023/11/29 13:52:27;;;;;;;13.02;7.75;;;;;;;;;;4918898;29;20365;-82
2023/11/29 13:54:52;;;;;;;11.80;7.50;;;;;;;;;;4918803;29;20028;-82
2023/11/29 13:57:18;;;;;;;12.55;7.68;;;;;;;;;;4917441;29;20287;-82
2023/11/29 13:59:43;;;;;;;14.05;8.18;;;;;;;;;;4918712;29;20033;-82
2023/11/29 14:02:11;;;;;;;11.83;7.27;;;;;;;;;;4918645;29;20610;-82
2023/11/29 14:04:40;;;;;;;12.48;8.05;;;;;;;;;;4916770;29;20259;-82
2023/11/29 14:07:06;;;;;;;11.45;8.07;;;;;;;;;;4917284;29;20059;-82
2023/11/29 14:09:34;;;;;;;13.05;8.10;;;;;;;;;;4917284;29;20020;-82
2023/11/29 14:12:00;;;;;;;12.77;8.10;;;;;;;;;;4918467;29;20366;-82
2023/11/29 14:14:25;;;;;;;12.45;7.70;;;;;;;;;;4918385;29;20074;-82
2023/11/29 14:16:51;;;;;;;13.13;7.90;;;;;;;;;;4918350;29;20384;-82
2023/11/29 14:19:16;;;;;;;13.20;8.27;;;;;;;;;;4917004;29;20627;-82
2023/11/29 14:21:42;;;;;;;13.85;8.70;;;;;;;;;;4916909;29;20147;-82
2023/11/29 14:24:07;;;;;;;13.98;8.48;;;;;;;;;;4918195;29;20016;-82